sensor_id;sensor_type;location;lat;lon;timestamp;temperature;humidity
75821;DHT22;64454;51.984;9.838;2023-05-29T00:02:07;16.10;1.00
75821;DHT22;64454;51.984;9.838;2023-05-29T00:04:34;16.10;1.00
75821;DHT22;64454;51.984;9.838;2023-05-29T00:07:04;16.10;1.00
75821;DHT22;64454;51.984;9.838;2023-05-29T00:09:31;16.20;1.00
75821;DHT22;64454;51.984;9.838;2023-05-29T00:11:58;16.20;1.00
75821;DHT22;64454;51.984;9.838;2023-05-29T00:14:26;16.30;1.00
75821;DHT22;64454;51.984;9.838;2023-05-29T00:16:53;16.40;1.00
75821;DHT22;64454;51.984;9.838;2023-05-29T00:19:20;16.50;1.00
75821;DHT22;64454;51.984;9.838;2023-05-29T00:21:47;16.50;1.00
75821;DHT22;64454;51.984;9.838;2023-05-29T00:24:17;16.60;1.00
75821;DHT22;64454;51.984;9.838;2023-05-29T00:26:46;16.60;1.00
75821;DHT22;64454;51.984;9.838;2023-05-29T00:29:13;16.50;1.00
75821;DHT22;64454;51.984;9.838;2023-05-29T00:31:42;16.50;1.00
75821;DHT22;64454;51.984;9.838;2023-05-29T00:34:09;16.50;1.00
75821;DHT22;64454;51.984;9.838;2023-05-29T00:36:35;16.50;1.00
75821;DHT22;64454;51.984;9.838;2023-05-29T00:39:03;16.50;1.00
75821;DHT22;64454;51.984;9.838;2023-05-29T00:41:32;16.40;1.00
75821;DHT22;64454;51.984;9.838;2023-05-29T00:43:58;16.30;1.00
75821;DHT22;64454;51.984;9.838;2023-05-29T00:46:25;16.20;1.00
75821;DHT22;64454;51.984;9.838;2023-05-29T00:48:53;16.20;1.00
75821;DHT22;64454;51.984;9.838;2023-05-29T00:51:21;16.10;1.00
75821;DHT22;64454;51.984;9.838;2023-05-29T00:53:50;16.00;1.00
75821;DHT22;64454;51.984;9.838;2023-05-29T00:56:18;16.00;1.00
75821;DHT22;64454;51.984;9.838;2023-05-29T00:58:49;16.00;1.00
75821;DHT22;64454;51.984;9.838;2023-05-29T01:01:18;15.90;1.00
75821;DHT22;64454;51.984;9.838;2023-05-29T01:03:46;16.00;1.00
75821;DHT22;64454;51.984;9.838;2023-05-29T01:06:14;16.00;1.00
75821;DHT22;64454;51.984;9.838;2023-05-29T01:08:41;16.10;1.00
75821;DHT22;64454;51.984;9.838;2023-05-29T01:11:12;16.00;1.00
75821;DHT22;64454;51.984;9.838;2023-05-29T01:13:49;15.90;1.00
75821;DHT22;64454;51.984;9.838;2023-05-29T01:16:24;15.80;1.00
75821;DHT22;64454;51.984;9.838;2023-05-29T01:19:04;15.80;1.00
75821;DHT22;64454;51.984;9.838;2023-05-29T01:21:56;15.70;1.00
75821;DHT22;64454;51.984;9.838;2023-05-29T01:24:37;15.60;1.00
75821;DHT22;64454;51.984;9.838;2023-05-29T01:27:10;15.50;1.00
75821;DHT22;64454;51.984;9.838;2023-05-29T01:29:39;15.40;1.00
75821;DHT22;64454;51.984;9.838;2023-05-29T01:32:09;15.40;1.00
75821;DHT22;64454;51.984;9.838;2023-05-29T01:34:37;15.40;1.00
75821;DHT22;64454;51.984;9.838;2023-05-29T01:37:04;15.30;1.00
75821;DHT22;64454;51.984;9.838;2023-05-29T01:39:32;15.40;1.00
75821;DHT22;64454;51.984;9.838;2023-05-29T01:42:00;15.30;1.00
75821;DHT22;64454;51.984;9.838;2023-05-29T01:44:29;15.20;1.00
75821;DHT22;64454;51.984;9.838;2023-05-29T01:46:57;15.20;1.00
75821;DHT22;64454;51.984;9.838;2023-05-29T01:49:24;15.10;1.00
75821;DHT22;64454;51.984;9.838;2023-05-29T01:51:53;15.10;1.00
75821;DHT22;64454;51.984;9.838;2023-05-29T01:54:21;15.10;1.00
75821;DHT22;64454;51.984;9.838;2023-05-29T01:56:48;15.00;1.00
75821;DHT22;64454;51.984;9.838;2023-05-29T01:59:18;15.00;1.00
75821;DHT22;64454;51.984;9.838;2023-05-29T02:01:48;14.80;1.00
75821;DHT22;64454;51.984;9.838;2023-05-29T02:04:17;14.80;1.00
75821;DHT22;64454;51.984;9.838;2023-05-29T02:06:45;14.80;1.00
75821;DHT22;64454;51.984;9.838;2023-05-29T02:09:12;14.80;1.00
75821;DHT22;64454;51.984;9.838;2023-05-29T02:11:40;14.70;1.00
75821;DHT22;64454;51.984;9.838;2023-05-29T02:14:11;14.70;1.00
75821;DHT22;64454;51.984;9.838;2023-05-29T02:16:38;14.50;1.00
75821;DHT22;64454;51.984;9.838;2023-05-29T02:19:07;14.60;1.00
75821;DHT22;64454;51.984;9.838;2023-05-29T02:21:38;14.60;1.00
75821;DHT22;64454;51.984;9.838;2023-05-29T02:24:06;14.60;1.00
75821;DHT22;64454;51.984;9.838;2023-05-29T02:26:33;14.70;1.00
75821;DHT22;64454;51.984;9.838;2023-05-29T02:29:02;14.70;1.00
75821;DHT22;64454;51.984;9.838;2023-05-29T02:31:31;14.40;1.00
75821;DHT22;64454;51.984;9.838;2023-05-29T02:33:57;14.40;1.00
75821;DHT22;64454;51.984;9.838;2023-05-29T02:36:25;14.30;1.00
75821;DHT22;64454;51.984;9.838;2023-05-29T02:38:53;14.30;1.00
75821;DHT22;64454;51.984;9.838;2023-05-29T02:41:20;14.30;1.00
75821;DHT22;64454;51.984;9.838;2023-05-29T02:43:47;14.40;1.00
75821;DHT22;64454;51.984;9.838;2023-05-29T02:46:14;14.40;1.00
75821;DHT22;64454;51.984;9.838;2023-05-29T02:48:40;14.20;1.00
75821;DHT22;64454;51.984;9.838;2023-05-29T02:51:07;14.20;1.00
75821;DHT22;64454;51.984;9.838;2023-05-29T02:53:35;14.10;1.00
75821;DHT22;64454;51.984;9.838;2023-05-29T02:56:02;14.10;1.00
75821;DHT22;64454;51.984;9.838;2023-05-29T02:58:30;14.00;1.00
75821;DHT22;64454;51.984;9.838;2023-05-29T03:00:58;14.00;1.00
75821;DHT22;64454;51.984;9.838;2023-05-29T03:03:25;14.00;1.00
75821;DHT22;64454;51.984;9.838;2023-05-29T03:05:52;14.10;1.00
75821;DHT22;64454;51.984;9.838;2023-05-29T03:08:19;14.00;1.00
75821;DHT22;64454;51.984;9.838;2023-05-29T03:10:47;14.10;1.00
75821;DHT22;64454;51.984;9.838;2023-05-29T03:13:14;14.10;1.00
75821;DHT22;64454;51.984;9.838;2023-05-29T03:15:41;14.00;1.00
75821;DHT22;64454;51.984;9.838;2023-05-29T03:18:08;13.80;1.00
75821;DHT22;64454;51.984;9.838;2023-05-29T03:20:35;13.70;1.00
75821;DHT22;64454;51.984;9.838;2023-05-29T03:23:02;13.80;1.00
75821;DHT22;64454;51.984;9.838;2023-05-29T03:25:29;13.70;1.00
75821;DHT22;64454;51.984;9.838;2023-05-29T03:27:57;13.70;1.00
75821;DHT22;64454;51.984;9.838;2023-05-29T03:30:24;13.70;1.00
75821;DHT22;64454;51.984;9.838;2023-05-29T03:32:51;13.80;1.00
75821;DHT22;64454;51.984;9.838;2023-05-29T03:35:18;13.60;1.00
75821;DHT22;64454;51.984;9.838;2023-05-29T03:37:45;13.70;1.00
75821;DHT22;64454;51.984;9.838;2023-05-29T03:40:12;13.70;1.00
75821;DHT22;64454;51.984;9.838;2023-05-29T03:42:39;13.80;1.00
75821;DHT22;64454;51.984;9.838;2023-05-29T03:45:08;13.70;1.00
75821;DHT22;64454;51.984;9.838;2023-05-29T03:47:35;13.90;1.00
75821;DHT22;64454;51.984;9.838;2023-05-29T03:50:03;13.90;1.00
75821;DHT22;64454;51.984;9.838;2023-05-29T03:52:30;13.80;1.00
75821;DHT22;64454;51.984;9.838;2023-05-29T03:54:57;13.70;1.00
75821;DHT22;64454;51.984;9.838;2023-05-29T03:57:24;13.70;1.00
75821;DHT22;64454;51.984;9.838;2023-05-29T03:59:51;13.70;1.00
75821;DHT22;64454;51.984;9.838;2023-05-29T04:02:20;13.80;1.00
75821;DHT22;64454;51.984;9.838;2023-05-29T04:04:47;13.80;1.00
75821;DHT22;64454;51.984;9.838;2023-05-29T04:07:14;13.80;1.00
75821;DHT22;64454;51.984;9.838;2023-05-29T04:09:43;13.70;1.00
75821;DHT22;64454;51.984;9.838;2023-05-29T04:12:09;13.60;1.00
75821;DHT22;64454;51.984;9.838;2023-05-29T04:14:37;13.60;1.00
75821;DHT22;64454;51.984;9.838;2023-05-29T04:17:03;13.60;1.00
75821;DHT22;64454;51.984;9.838;2023-05-29T04:19:32;13.30;1.00
75821;DHT22;64454;51.984;9.838;2023-05-29T04:21:58;13.30;1.00
75821;DHT22;64454;51.984;9.838;2023-05-29T04:24:25;13.30;1.00
75821;DHT22;64454;51.984;9.838;2023-05-29T04:26:52;13.20;1.00
75821;DHT22;64454;51.984;9.838;2023-05-29T04:29:20;13.00;1.00
75821;DHT22;64454;51.984;9.838;2023-05-29T04:31:47;13.00;1.00
75821;DHT22;64454;51.984;9.838;2023-05-29T04:34:15;13.00;1.00
75821;DHT22;64454;51.984;9.838;2023-05-29T04:36:48;13.00;1.00
75821;DHT22;64454;51.984;9.838;2023-05-29T04:39:16;13.00;1.00
75821;DHT22;64454;51.984;9.838;2023-05-29T04:41:47;13.00;1.00
75821;DHT22;64454;51.984;9.838;2023-05-29T04:44:16;13.00;1.00
75821;DHT22;64454;51.984;9.838;2023-05-29T04:46:45;13.10;1.00
75821;DHT22;64454;51.984;9.838;2023-05-29T04:49:12;13.10;1.00
75821;DHT22;64454;51.984;9.838;2023-05-29T04:51:40;13.20;1.00
75821;DHT22;64454;51.984;9.838;2023-05-29T04:54:09;13.30;1.00
75821;DHT22;64454;51.984;9.838;2023-05-29T04:56:37;13.30;1.00
75821;DHT22;64454;51.984;9.838;2023-05-29T04:59:05;13.30;1.00
75821;DHT22;64454;51.984;9.838;2023-05-29T05:01:33;13.30;1.00
75821;DHT22;64454;51.984;9.838;2023-05-29T05:04:00;13.10;1.00
75821;DHT22;64454;51.984;9.838;2023-05-29T05:06:26;13.30;1.00
75821;DHT22;64454;51.984;9.838;2023-05-29T05:08:54;13.30;1.00
75821;DHT22;64454;51.984;9.838;2023-05-29T05:11:23;13.30;1.00
75821;DHT22;64454;51.984;9.838;2023-05-29T05:13:50;13.40;1.00
75821;DHT22;64454;51.984;9.838;2023-05-29T05:16:17;13.20;1.00
75821;DHT22;64454;51.984;9.838;2023-05-29T05:18:44;13.20;1.00
75821;DHT22;64454;51.984;9.838;2023-05-29T05:21:11;13.30;1.00
75821;DHT22;64454;51.984;9.838;2023-05-29T05:23:38;13.50;1.00
75821;DHT22;64454;51.984;9.838;2023-05-29T05:26:06;13.50;1.00
75821;DHT22;64454;51.984;9.838;2023-05-29T05:28:35;13.50;1.00
75821;DHT22;64454;51.984;9.838;2023-05-29T05:31:01;13.60;1.00
75821;DHT22;64454;51.984;9.838;2023-05-29T05:33:28;13.50;1.00
75821;DHT22;64454;51.984;9.838;2023-05-29T05:35:55;13.70;1.00
75821;DHT22;64454;51.984;9.838;2023-05-29T05:38:22;13.70;1.00
75821;DHT22;64454;51.984;9.838;2023-05-29T05:40:48;13.90;1.00
75821;DHT22;64454;51.984;9.838;2023-05-29T05:43:15;13.80;1.00
75821;DHT22;64454;51.984;9.838;2023-05-29T05:45:43;14.00;1.00
75821;DHT22;64454;51.984;9.838;2023-05-29T05:48:10;14.10;1.00
75821;DHT22;64454;51.984;9.838;2023-05-29T05:50:38;14.10;1.00
75821;DHT22;64454;51.984;9.838;2023-05-29T05:53:05;14.20;1.00
75821;DHT22;64454;51.984;9.838;2023-05-29T05:55:32;14.30;1.00
75821;DHT22;64454;51.984;9.838;2023-05-29T05:57:59;14.30;1.00
75821;DHT22;64454;51.984;9.838;2023-05-29T06:00:26;14.20;1.00
75821;DHT22;64454;51.984;9.838;2023-05-29T06:02:54;14.30;1.00
75821;DHT22;64454;51.984;9.838;2023-05-29T06:05:22;14.40;1.00
75821;DHT22;64454;51.984;9.838;2023-05-29T06:07:48;14.50;1.00
75821;DHT22;64454;51.984;9.838;2023-05-29T06:10:15;14.60;1.00
75821;DHT22;64454;51.984;9.838;2023-05-29T06:12:42;14.70;1.00
75821;DHT22;64454;51.984;9.838;2023-05-29T06:15:09;14.70;1.00
75821;DHT22;64454;51.984;9.838;2023-05-29T06:17:36;14.70;1.00
75821;DHT22;64454;51.984;9.838;2023-05-29T06:20:05;14.80;1.00
75821;DHT22;64454;51.984;9.838;2023-05-29T06:22:35;14.70;1.00
75821;DHT22;64454;51.984;9.838;2023-05-29T06:25:02;14.70;1.00
75821;DHT22;64454;51.984;9.838;2023-05-29T06:27:30;14.70;1.00
75821;DHT22;64454;51.984;9.838;2023-05-29T06:29:57;14.70;1.00
75821;DHT22;64454;51.984;9.838;2023-05-29T06:32:23;14.90;1.00
75821;DHT22;64454;51.984;9.838;2023-05-29T06:34:51;15.00;1.00
75821;DHT22;64454;51.984;9.838;2023-05-29T06:37:19;15.20;1.00
75821;DHT22;64454;51.984;9.838;2023-05-29T06:39:46;15.20;1.00
75821;DHT22;64454;51.984;9.838;2023-05-29T06:42:12;15.20;1.00
75821;DHT22;64454;51.984;9.838;2023-05-29T06:44:39;15.20;1.00
75821;DHT22;64454;51.984;9.838;2023-05-29T06:47:06;15.50;1.00
75821;DHT22;64454;51.984;9.838;2023-05-29T06:49:33;15.70;1.00
75821;DHT22;64454;51.984;9.838;2023-05-29T06:52:00;15.90;1.00
75821;DHT22;64454;51.984;9.838;2023-05-29T06:54:28;16.10;1.00
75821;DHT22;64454;51.984;9.838;2023-05-29T06:56:55;16.20;1.00
75821;DHT22;64454;51.984;9.838;2023-05-29T06:59:22;16.30;1.00
75821;DHT22;64454;51.984;9.838;2023-05-29T07:01:49;16.50;1.00
75821;DHT22;64454;51.984;9.838;2023-05-29T07:04:17;16.60;1.00
75821;DHT22;64454;51.984;9.838;2023-05-29T07:06:45;16.70;1.00
75821;DHT22;64454;51.984;9.838;2023-05-29T07:09:12;16.80;1.00
75821;DHT22;64454;51.984;9.838;2023-05-29T07:11:42;16.60;1.00
75821;DHT22;64454;51.984;9.838;2023-05-29T07:14:09;16.90;1.00
75821;DHT22;64454;51.984;9.838;2023-05-29T07:16:36;17.00;1.00
75821;DHT22;64454;51.984;9.838;2023-05-29T07:19:02;17.10;1.00
75821;DHT22;64454;51.984;9.838;2023-05-29T07:21:30;17.10;1.00
75821;DHT22;64454;51.984;9.838;2023-05-29T07:23:58;17.20;1.00
75821;DHT22;64454;51.984;9.838;2023-05-29T07:26:25;17.30;1.00
75821;DHT22;64454;51.984;9.838;2023-05-29T07:28:53;17.40;1.00
75821;DHT22;64454;51.984;9.838;2023-05-29T07:31:20;17.50;1.00
75821;DHT22;64454;51.984;9.838;2023-05-29T07:33:47;17.50;1.00
75821;DHT22;64454;51.984;9.838;2023-05-29T07:36:15;17.50;1.00
75821;DHT22;64454;51.984;9.838;2023-05-29T07:38:42;17.80;1.00
75821;DHT22;64454;51.984;9.838;2023-05-29T07:41:09;18.00;1.00
75821;DHT22;64454;51.984;9.838;2023-05-29T07:43:36;18.10;1.00
75821;DHT22;64454;51.984;9.838;2023-05-29T07:46:04;18.20;1.00
75821;DHT22;64454;51.984;9.838;2023-05-29T07:48:31;18.40;1.00
75821;DHT22;64454;51.984;9.838;2023-05-29T07:50:58;18.60;1.00
75821;DHT22;64454;51.984;9.838;2023-05-29T07:53:25;18.80;1.00
75821;DHT22;64454;51.984;9.838;2023-05-29T07:55:52;18.80;1.00
75821;DHT22;64454;51.984;9.838;2023-05-29T07:58:19;18.80;1.00
75821;DHT22;64454;51.984;9.838;2023-05-29T08:00:46;18.80;1.00
75821;DHT22;64454;51.984;9.838;2023-05-29T08:03:14;18.80;1.00
75821;DHT22;64454;51.984;9.838;2023-05-29T08:05:41;19.20;1.00
75821;DHT22;64454;51.984;9.838;2023-05-29T08:08:07;19.30;1.00
75821;DHT22;64454;51.984;9.838;2023-05-29T08:10:34;19.20;1.00
75821;DHT22;64454;51.984;9.838;2023-05-29T08:13:01;18.90;1.00
75821;DHT22;64454;51.984;9.838;2023-05-29T08:15:28;18.90;1.00
75821;DHT22;64454;51.984;9.838;2023-05-29T08:17:54;18.90;1.00
75821;DHT22;64454;51.984;9.838;2023-05-29T08:20:22;19.10;1.00
75821;DHT22;64454;51.984;9.838;2023-05-29T08:22:49;19.20;1.00
75821;DHT22;64454;51.984;9.838;2023-05-29T08:25:16;19.40;1.00
75821;DHT22;64454;51.984;9.838;2023-05-29T08:27:43;19.60;1.00
75821;DHT22;64454;51.984;9.838;2023-05-29T08:30:11;19.70;1.00
75821;DHT22;64454;51.984;9.838;2023-05-29T08:32:39;19.80;1.00
75821;DHT22;64454;51.984;9.838;2023-05-29T08:35:06;20.00;1.00
75821;DHT22;64454;51.984;9.838;2023-05-29T08:37:35;20.40;1.00
75821;DHT22;64454;51.984;9.838;2023-05-29T08:40:02;20.60;1.00
75821;DHT22;64454;51.984;9.838;2023-05-29T08:42:40;20.60;1.00
75821;DHT22;64454;51.984;9.838;2023-05-29T08:45:13;20.60;1.00
75821;DHT22;64454;51.984;9.838;2023-05-29T08:47:41;20.70;1.00
75821;DHT22;64454;51.984;9.838;2023-05-29T08:50:08;20.90;1.00
75821;DHT22;64454;51.984;9.838;2023-05-29T08:52:38;20.90;1.00
75821;DHT22;64454;51.984;9.838;2023-05-29T08:55:07;21.10;1.00
75821;DHT22;64454;51.984;9.838;2023-05-29T08:57:36;21.50;1.00
75821;DHT22;64454;51.984;9.838;2023-05-29T09:00:05;21.70;1.00
75821;DHT22;64454;51.984;9.838;2023-05-29T09:02:37;21.80;1.00
75821;DHT22;64454;51.984;9.838;2023-05-29T09:05:05;22.10;1.00
75821;DHT22;64454;51.984;9.838;2023-05-29T09:07:33;22.30;1.00
75821;DHT22;64454;51.984;9.838;2023-05-29T09:10:01;22.30;1.00
75821;DHT22;64454;51.984;9.838;2023-05-29T09:12:28;22.20;1.00
75821;DHT22;64454;51.984;9.838;2023-05-29T09:14:54;22.30;1.00
75821;DHT22;64454;51.984;9.838;2023-05-29T09:17:21;22.60;1.00
75821;DHT22;64454;51.984;9.838;2023-05-29T09:19:48;22.80;1.00
75821;DHT22;64454;51.984;9.838;2023-05-29T09:22:16;23.20;1.00
75821;DHT22;64454;51.984;9.838;2023-05-29T09:24:46;23.20;1.00
75821;DHT22;64454;51.984;9.838;2023-05-29T09:27:15;23.50;1.00
75821;DHT22;64454;51.984;9.838;2023-05-29T09:29:44;23.60;1.00
75821;DHT22;64454;51.984;9.838;2023-05-29T09:32:14;23.20;1.00
75821;DHT22;64454;51.984;9.838;2023-05-29T09:34:42;23.10;1.00
75821;DHT22;64454;51.984;9.838;2023-05-29T09:37:10;23.30;1.00
75821;DHT22;64454;51.984;9.838;2023-05-29T09:39:45;23.40;1.00
75821;DHT22;64454;51.984;9.838;2023-05-29T09:42:13;23.60;1.00
75821;DHT22;64454;51.984;9.838;2023-05-29T09:44:44;23.90;1.00
75821;DHT22;64454;51.984;9.838;2023-05-29T09:47:14;23.90;1.00
75821;DHT22;64454;51.984;9.838;2023-05-29T09:49:43;24.00;1.00
75821;DHT22;64454;51.984;9.838;2023-05-29T09:52:12;23.90;1.00
75821;DHT22;64454;51.984;9.838;2023-05-29T09:54:41;23.80;1.00
75821;DHT22;64454;51.984;9.838;2023-05-29T09:57:11;24.10;1.00
75821;DHT22;64454;51.984;9.838;2023-05-29T09:59:41;24.00;1.00
75821;DHT22;64454;51.984;9.838;2023-05-29T10:02:11;23.80;1.00
75821;DHT22;64454;51.984;9.838;2023-05-29T10:04:39;23.80;1.00
75821;DHT22;64454;51.984;9.838;2023-05-29T10:07:08;23.60;1.00
75821;DHT22;64454;51.984;9.838;2023-05-29T10:09:42;23.80;1.00
75821;DHT22;64454;51.984;9.838;2023-05-29T10:12:12;24.30;1.00
75821;DHT22;64454;51.984;9.838;2023-05-29T10:14:42;24.50;1.00
75821;DHT22;64454;51.984;9.838;2023-05-29T10:17:13;24.30;1.00
75821;DHT22;64454;51.984;9.838;2023-05-29T10:19:43;24.30;1.00
75821;DHT22;64454;51.984;9.838;2023-05-29T10:22:13;24.50;1.00
75821;DHT22;64454;51.984;9.838;2023-05-29T10:24:45;24.80;1.00
75821;DHT22;64454;51.984;9.838;2023-05-29T10:27:15;25.20;1.00
75821;DHT22;64454;51.984;9.838;2023-05-29T10:29:48;25.20;1.00
75821;DHT22;64454;51.984;9.838;2023-05-29T10:32:23;25.00;1.00
75821;DHT22;64454;51.984;9.838;2023-05-29T10:35:02;24.90;1.00
75821;DHT22;64454;51.984;9.838;2023-05-29T10:37:40;24.80;1.00
75821;DHT22;64454;51.984;9.838;2023-05-29T10:40:11;24.90;1.00
75821;DHT22;64454;51.984;9.838;2023-05-29T10:42:43;25.10;1.00
75821;DHT22;64454;51.984;9.838;2023-05-29T10:48:36;25.70;1.00
75821;DHT22;64454;51.984;9.838;2023-05-29T10:51:06;26.10;1.00
75821;DHT22;64454;51.984;9.838;2023-05-29T10:53:34;26.00;1.00
75821;DHT22;64454;51.984;9.838;2023-05-29T10:56:08;26.00;1.00
75821;DHT22;64454;51.984;9.838;2023-05-29T10:58:40;25.80;1.00
75821;DHT22;64454;51.984;9.838;2023-05-29T11:01:09;25.90;1.00
75821;DHT22;64454;51.984;9.838;2023-05-29T11:03:38;25.80;1.00
75821;DHT22;64454;51.984;9.838;2023-05-29T11:06:05;25.50;1.00
75821;DHT22;64454;51.984;9.838;2023-05-29T11:08:35;25.50;1.00
75821;DHT22;64454;51.984;9.838;2023-05-29T11:11:11;25.40;1.00
75821;DHT22;64454;51.984;9.838;2023-05-29T11:13:39;25.20;1.00
75821;DHT22;64454;51.984;9.838;2023-05-29T11:16:20;25.30;1.00
75821;DHT22;64454;51.984;9.838;2023-05-29T11:19:04;25.20;1.00
75821;DHT22;64454;51.984;9.838;2023-05-29T11:21:34;25.20;1.00
75821;DHT22;64454;51.984;9.838;2023-05-29T11:24:21;25.00;1.00
75821;DHT22;64454;51.984;9.838;2023-05-29T11:26:51;24.80;1.00
75821;DHT22;64454;51.984;9.838;2023-05-29T11:29:21;24.90;1.00
75821;DHT22;64454;51.984;9.838;2023-05-29T11:31:55;24.90;1.00
75821;DHT22;64454;51.984;9.838;2023-05-29T11:34:26;24.90;1.00
75821;DHT22;64454;51.984;9.838;2023-05-29T11:36:56;24.90;1.00
75821;DHT22;64454;51.984;9.838;2023-05-29T11:39:23;25.20;1.00
75821;DHT22;64454;51.984;9.838;2023-05-29T11:41:50;25.30;1.00
75821;DHT22;64454;51.984;9.838;2023-05-29T11:44:19;25.50;1.00
75821;DHT22;64454;51.984;9.838;2023-05-29T11:46:47;25.60;1.00
75821;DHT22;64454;51.984;9.838;2023-05-29T11:49:28;25.70;1.00
75821;DHT22;64454;51.984;9.838;2023-05-29T11:52:05;25.90;1.00
75821;DHT22;64454;51.984;9.838;2023-05-29T11:54:33;25.70;1.00
75821;DHT22;64454;51.984;9.838;2023-05-29T11:57:00;25.40;1.00
75821;DHT22;64454;51.984;9.838;2023-05-29T11:59:28;25.40;1.00
75821;DHT22;64454;51.984;9.838;2023-05-29T12:01:55;25.70;1.00
75821;DHT22;64454;51.984;9.838;2023-05-29T12:04:23;25.80;1.00
75821;DHT22;64454;51.984;9.838;2023-05-29T12:06:50;26.00;1.00
75821;DHT22;64454;51.984;9.838;2023-05-29T12:09:26;26.00;1.00
75821;DHT22;64454;51.984;9.838;2023-05-29T12:11:54;26.30;1.00
75821;DHT22;64454;51.984;9.838;2023-05-29T12:14:27;26.50;1.00
75821;DHT22;64454;51.984;9.838;2023-05-29T12:16:54;26.90;1.00
75821;DHT22;64454;51.984;9.838;2023-05-29T12:19:22;26.90;1.00
75821;DHT22;64454;51.984;9.838;2023-05-29T12:21:49;26.80;1.00
75821;DHT22;64454;51.984;9.838;2023-05-29T12:24:19;26.70;1.00
75821;DHT22;64454;51.984;9.838;2023-05-29T12:26:47;26.50;1.00
75821;DHT22;64454;51.984;9.838;2023-05-29T12:29:15;26.50;1.00
75821;DHT22;64454;51.984;9.838;2023-05-29T12:31:44;26.50;1.00
75821;DHT22;64454;51.984;9.838;2023-05-29T12:34:11;26.40;1.00
75821;DHT22;64454;51.984;9.838;2023-05-29T12:36:42;26.50;1.00
75821;DHT22;64454;51.984;9.838;2023-05-29T12:39:09;26.30;1.00
75821;DHT22;64454;51.984;9.838;2023-05-29T12:41:37;26.20;1.00
75821;DHT22;64454;51.984;9.838;2023-05-29T12:44:06;26.00;1.00
75821;DHT22;64454;51.984;9.838;2023-05-29T12:46:38;26.00;1.00
75821;DHT22;64454;51.984;9.838;2023-05-29T12:49:12;25.80;1.00
75821;DHT22;64454;51.984;9.838;2023-05-29T12:51:42;25.50;1.00
75821;DHT22;64454;51.984;9.838;2023-05-29T12:54:10;25.20;1.00
75821;DHT22;64454;51.984;9.838;2023-05-29T12:56:37;25.40;1.00
75821;DHT22;64454;51.984;9.838;2023-05-29T12:59:06;25.30;1.00
75821;DHT22;64454;51.984;9.838;2023-05-29T13:01:33;25.30;1.00
75821;DHT22;64454;51.984;9.838;2023-05-29T13:04:00;25.50;1.00
75821;DHT22;64454;51.984;9.838;2023-05-29T13:06:27;25.70;1.00
75821;DHT22;64454;51.984;9.838;2023-05-29T13:08:55;26.00;1.00
75821;DHT22;64454;51.984;9.838;2023-05-29T13:11:22;26.10;1.00
75821;DHT22;64454;51.984;9.838;2023-05-29T13:13:48;26.00;1.00
75821;DHT22;64454;51.984;9.838;2023-05-29T13:16:15;25.80;1.00
75821;DHT22;64454;51.984;9.838;2023-05-29T13:18:43;25.90;1.00
75821;DHT22;64454;51.984;9.838;2023-05-29T13:21:10;25.90;1.00
75821;DHT22;64454;51.984;9.838;2023-05-29T13:23:37;25.90;1.00
75821;DHT22;64454;51.984;9.838;2023-05-29T13:26:05;25.80;1.00
75821;DHT22;64454;51.984;9.838;2023-05-29T13:28:32;25.90;1.00
75821;DHT22;64454;51.984;9.838;2023-05-29T13:30:59;25.90;1.00
75821;DHT22;64454;51.984;9.838;2023-05-29T13:33:26;26.10;1.00
75821;DHT22;64454;51.984;9.838;2023-05-29T13:35:53;26.10;1.00
75821;DHT22;64454;51.984;9.838;2023-05-29T13:38:20;26.10;1.00
75821;DHT22;64454;51.984;9.838;2023-05-29T13:40:46;25.90;1.00
75821;DHT22;64454;51.984;9.838;2023-05-29T13:43:14;25.70;1.00
75821;DHT22;64454;51.984;9.838;2023-05-29T13:45:41;25.60;1.00
75821;DHT22;64454;51.984;9.838;2023-05-29T13:48:08;25.50;1.00
75821;DHT22;64454;51.984;9.838;2023-05-29T13:50:35;25.50;1.00
75821;DHT22;64454;51.984;9.838;2023-05-29T13:53:02;25.40;1.00
75821;DHT22;64454;51.984;9.838;2023-05-29T13:55:28;25.40;1.00
75821;DHT22;64454;51.984;9.838;2023-05-29T13:57:55;25.40;1.00
75821;DHT22;64454;51.984;9.838;2023-05-29T14:00:24;25.50;1.00
75821;DHT22;64454;51.984;9.838;2023-05-29T14:02:51;25.60;1.00
75821;DHT22;64454;51.984;9.838;2023-05-29T14:05:18;25.70;1.00
75821;DHT22;64454;51.984;9.838;2023-05-29T14:07:44;25.60;1.00
75821;DHT22;64454;51.984;9.838;2023-05-29T14:10:11;25.70;1.00
75821;DHT22;64454;51.984;9.838;2023-05-29T14:12:38;25.30;1.00
75821;DHT22;64454;51.984;9.838;2023-05-29T14:15:06;25.30;1.00
75821;DHT22;64454;51.984;9.838;2023-05-29T14:17:35;25.00;1.00
75821;DHT22;64454;51.984;9.838;2023-05-29T14:20:02;25.00;1.00
75821;DHT22;64454;51.984;9.838;2023-05-29T14:22:30;24.90;1.00
75821;DHT22;64454;51.984;9.838;2023-05-29T14:24:57;24.90;1.00
75821;DHT22;64454;51.984;9.838;2023-05-29T14:27:25;24.90;1.00
75821;DHT22;64454;51.984;9.838;2023-05-29T14:29:52;24.90;1.00
75821;DHT22;64454;51.984;9.838;2023-05-29T14:32:19;24.90;1.00
75821;DHT22;64454;51.984;9.838;2023-05-29T14:34:47;24.90;1.00
75821;DHT22;64454;51.984;9.838;2023-05-29T14:37:15;25.00;1.00
75821;DHT22;64454;51.984;9.838;2023-05-29T14:39:41;25.00;1.00
75821;DHT22;64454;51.984;9.838;2023-05-29T14:42:08;25.30;1.00
75821;DHT22;64454;51.984;9.838;2023-05-29T14:44:35;25.40;1.00
75821;DHT22;64454;51.984;9.838;2023-05-29T14:47:02;25.40;1.00
75821;DHT22;64454;51.984;9.838;2023-05-29T14:49:29;25.50;1.00
75821;DHT22;64454;51.984;9.838;2023-05-29T14:51:58;25.60;1.00
75821;DHT22;64454;51.984;9.838;2023-05-29T14:54:25;25.50;1.00
75821;DHT22;64454;51.984;9.838;2023-05-29T14:56:53;25.60;1.00
75821;DHT22;64454;51.984;9.838;2023-05-29T14:59:20;25.40;1.00
75821;DHT22;64454;51.984;9.838;2023-05-29T15:01:48;25.40;1.00
75821;DHT22;64454;51.984;9.838;2023-05-29T15:04:17;25.40;1.00
75821;DHT22;64454;51.984;9.838;2023-05-29T15:06:45;25.40;1.00
75821;DHT22;64454;51.984;9.838;2023-05-29T15:09:14;25.10;1.00
75821;DHT22;64454;51.984;9.838;2023-05-29T15:11:43;24.80;1.00
75821;DHT22;64454;51.984;9.838;2023-05-29T15:14:10;24.60;1.00
75821;DHT22;64454;51.984;9.838;2023-05-29T15:16:37;24.50;1.00
75821;DHT22;64454;51.984;9.838;2023-05-29T15:19:03;24.50;1.00
75821;DHT22;64454;51.984;9.838;2023-05-29T15:21:30;24.40;1.00
75821;DHT22;64454;51.984;9.838;2023-05-29T15:23:57;24.70;1.00
75821;DHT22;64454;51.984;9.838;2023-05-29T15:26:25;24.60;1.00
75821;DHT22;64454;51.984;9.838;2023-05-29T15:28:52;24.60;1.00
75821;DHT22;64454;51.984;9.838;2023-05-29T15:31:19;24.60;1.00
75821;DHT22;64454;51.984;9.838;2023-05-29T15:33:47;24.70;1.00
75821;DHT22;64454;51.984;9.838;2023-05-29T15:36:15;24.50;1.00
75821;DHT22;64454;51.984;9.838;2023-05-29T15:38:44;24.40;1.00
75821;DHT22;64454;51.984;9.838;2023-05-29T15:41:11;24.20;1.00
75821;DHT22;64454;51.984;9.838;2023-05-29T15:43:39;24.30;1.00
75821;DHT22;64454;51.984;9.838;2023-05-29T15:46:06;24.20;1.00
75821;DHT22;64454;51.984;9.838;2023-05-29T15:48:34;24.20;1.00
75821;DHT22;64454;51.984;9.838;2023-05-29T15:51:00;24.10;1.00
75821;DHT22;64454;51.984;9.838;2023-05-29T15:53:27;24.00;1.00
75821;DHT22;64454;51.984;9.838;2023-05-29T15:55:54;24.10;1.00